sensor_id;sensor_type;location;lat;lon;timestamp;pressure;altitude;pressure_sealevel;temperature;humidity
8451;BME280;4262;50.980;13.892;2024-01-07T00:02:07;87552.59;;;-142.97;60.04
8451;BME280;4262;50.980;13.892;2024-01-07T00:04:34;87595.97;;;-142.97;60.10
8451;BME280;4262;50.980;13.892;2024-01-07T00:07:00;87607.78;;;-142.97;60.33
8451;BME280;4262;50.980;13.892;2024-01-07T00:09:27;87631.44;;;-142.97;60.50
8451;BME280;4262;50.980;13.892;2024-01-07T00:11:54;87655.09;;;-142.97;59.93
8451;BME280;4262;50.980;13.892;2024-01-07T00:14:21;87678.75;;;-142.97;60.04
8451;BME280;4262;50.980;13.892;2024-01-07T00:16:47;87684.66;;;-142.97;60.03
8451;BME280;4262;50.980;13.892;2024-01-07T00:19:15;87631.44;;;-142.97;60.44
8451;BME280;4262;50.980;13.892;2024-01-07T00:21:42;87615.69;;;-142.97;60.33
8451;BME280;4262;50.980;13.892;2024-01-07T00:24:09;87595.97;;;-142.97;59.89
8451;BME280;4262;50.980;13.892;2024-01-07T00:26:36;87609.75;;;-142.97;60.25
8451;BME280;4262;50.980;13.892;2024-01-07T00:29:02;87554.56;;;-142.97;59.69
8451;BME280;4262;50.980;13.892;2024-01-07T00:31:32;87588.09;;;-142.97;59.87
8451;BME280;4262;50.980;13.892;2024-01-07T00:34:03;87538.81;;;-142.97;59.33
8451;BME280;4262;50.980;13.892;2024-01-07T00:36:31;87562.47;;;-142.97;59.75
8451;BME280;4262;50.980;13.892;2024-01-07T00:38:57;87542.75;;;-142.97;59.77
8451;BME280;4262;50.980;13.892;2024-01-07T00:41:24;87574.28;;;-142.97;60.21
8451;BME280;4262;50.980;13.892;2024-01-07T00:43:51;87556.53;;;-142.97;59.77
8451;BME280;4262;50.980;13.892;2024-01-07T00:46:18;87588.09;;;-142.97;60.52
8451;BME280;4262;50.980;13.892;2024-01-07T00:48:45;87528.94;;;-142.97;59.21
8451;BME280;4262;50.980;13.892;2024-01-07T00:51:12;87538.81;;;-142.97;57.72
8451;BME280;4262;50.980;13.892;2024-01-07T00:53:40;87467.84;;;-142.97;57.43
8451;BME280;4262;50.980;13.892;2024-01-07T00:56:07;87454.06;;;-142.97;57.90
8451;BME280;4262;50.980;13.892;2024-01-07T00:58:35;87487.56;;;-142.97;58.26
8451;BME280;4262;50.980;13.892;2024-01-07T01:01:03;87458.00;;;-142.97;57.42
8451;BME280;4262;50.980;13.892;2024-01-07T01:03:30;87448.16;;;-142.97;57.56
8451;BME280;4262;50.980;13.892;2024-01-07T01:05:56;87458.00;;;-142.97;57.85
8451;BME280;4262;50.980;13.892;2024-01-07T01:08:23;87458.00;;;-142.97;58.04
8451;BME280;4262;50.980;13.892;2024-01-07T01:10:54;87452.09;;;-142.97;57.87
8451;BME280;4262;50.980;13.892;2024-01-07T01:13:24;87420.56;;;-142.97;57.14
8451;BME280;4262;50.980;13.892;2024-01-07T01:15:51;87392.97;;;-142.97;57.01
8451;BME280;4262;50.980;13.892;2024-01-07T01:18:18;87383.09;;;-142.97;56.08
8451;BME280;4262;50.980;13.892;2024-01-07T01:20:45;87355.50;;;-142.97;56.19
8451;BME280;4262;50.980;13.892;2024-01-07T01:23:13;87383.09;;;-142.97;55.87
8451;BME280;4262;50.980;13.892;2024-01-07T01:25:42;87327.91;;;-142.97;55.83
8451;BME280;4262;50.980;13.892;2024-01-07T01:28:11;87387.03;;;-142.97;56.56
8451;BME280;4262;50.980;13.892;2024-01-07T01:30:37;87396.91;;;-142.97;56.67
8451;BME280;4262;50.980;13.892;2024-01-07T01:33:04;87369.31;;;-142.97;57.38
8451;BME280;4262;50.980;13.892;2024-01-07T01:35:31;87456.03;;;-142.97;57.33
8451;BME280;4262;50.980;13.892;2024-01-07T01:37:58;87513.19;;;-142.97;58.25
8451;BME280;4262;50.980;13.892;2024-01-07T01:40:25;87521.06;;;-142.97;58.36
8451;BME280;4262;50.980;13.892;2024-01-07T01:42:53;87481.66;;;-142.97;58.45
8451;BME280;4262;50.980;13.892;2024-01-07T01:45:23;87191.94;;;-142.97;58.70
8451;BME280;4262;50.980;13.892;2024-01-07T01:47:50;87501.34;;;-142.97;58.44
8451;BME280;4262;50.980;13.892;2024-01-07T01:50:17;87574.28;;;-142.97;58.32
8451;BME280;4262;50.980;13.892;2024-01-07T01:52:44;87515.16;;;-142.97;58.49
8451;BME280;4262;50.980;13.892;2024-01-07T01:55:11;87465.88;;;-142.97;57.86
8451;BME280;4262;50.980;13.892;2024-01-07T01:57:39;87456.03;;;-142.97;58.01
8451;BME280;4262;50.980;13.892;2024-01-07T02:00:10;87568.38;;;-142.97;58.43
8451;BME280;4262;50.980;13.892;2024-01-07T02:02:38;87528.94;;;-142.97;58.54
8451;BME280;4262;50.980;13.892;2024-01-07T02:05:06;87534.88;;;-142.97;58.81
8451;BME280;4262;50.980;13.892;2024-01-07T02:07:33;87548.66;;;-142.97;58.48
8451;BME280;4262;50.980;13.892;2024-01-07T02:10:00;87546.69;;;-142.97;58.97
8451;BME280;4262;50.980;13.892;2024-01-07T02:12:27;87477.72;;;-142.97;58.32
8451;BME280;4262;50.980;13.892;2024-01-07T02:14:55;87538.81;;;-142.97;58.63
8451;BME280;4262;50.980;13.892;2024-01-07T02:17:22;87530.94;;;-142.97;58.80
8451;BME280;4262;50.980;13.892;2024-01-07T02:19:50;87617.66;;;-142.97;58.95
8451;BME280;4262;50.980;13.892;2024-01-07T02:22:17;87530.94;;;-142.97;59.03
8451;BME280;4262;50.980;13.892;2024-01-07T02:24:45;87552.59;;;-142.97;58.94
8451;BME280;4262;50.980;13.892;2024-01-07T02:27:12;87544.72;;;-142.97;59.02
8451;BME280;4262;50.980;13.892;2024-01-07T02:29:39;87548.66;;;-142.97;59.26
8451;BME280;4262;50.980;13.892;2024-01-07T02:32:07;87572.31;;;-142.97;59.26
8451;BME280;4262;50.980;13.892;2024-01-07T02:34:34;87568.38;;;-142.97;59.17
8451;BME280;4262;50.980;13.892;2024-01-07T02:37:01;87558.53;;;-142.97;58.88
8451;BME280;4262;50.980;13.892;2024-01-07T02:39:31;87536.84;;;-142.97;58.64
8451;BME280;4262;50.980;13.892;2024-01-07T02:41:59;87505.31;;;-142.97;58.22
8451;BME280;4262;50.980;13.892;2024-01-07T02:44:29;87511.22;;;-142.97;57.57
8451;BME280;4262;50.980;13.892;2024-01-07T02:46:55;87558.53;;;-142.97;57.77
8451;BME280;4262;50.980;13.892;2024-01-07T02:49:25;87473.75;;;-142.97;57.67
8451;BME280;4262;50.980;13.892;2024-01-07T02:51:52;87477.72;;;-142.97;57.36
8451;BME280;4262;50.980;13.892;2024-01-07T02:54:19;87513.19;;;-142.97;57.89
8451;BME280;4262;50.980;13.892;2024-01-07T02:56:47;87430.41;;;-142.97;57.40
8451;BME280;4262;50.980;13.892;2024-01-07T02:59:15;87456.03;;;-142.97;56.63
8451;BME280;4262;50.980;13.892;2024-01-07T03:01:42;87491.50;;;-142.97;56.80
8451;BME280;4262;50.980;13.892;2024-01-07T03:04:10;87582.16;;;-142.97;57.98
8451;BME280;4262;50.980;13.892;2024-01-07T03:06:38;87511.22;;;-142.97;57.52
8451;BME280;4262;50.980;13.892;2024-01-07T03:09:06;87511.22;;;-142.97;57.82
8451;BME280;4262;50.980;13.892;2024-01-07T03:11:33;87491.50;;;-142.97;57.25
8451;BME280;4262;50.980;13.892;2024-01-07T03:14:00;87467.84;;;-142.97;56.93
8451;BME280;4262;50.980;13.892;2024-01-07T03:16:28;87446.16;;;-142.97;56.54
8451;BME280;4262;50.980;13.892;2024-01-07T03:18:55;87475.72;;;-142.97;56.81
8451;BME280;4262;50.980;13.892;2024-01-07T03:21:22;87463.91;;;-142.97;56.72
8451;BME280;4262;50.980;13.892;2024-01-07T03:23:50;87424.50;;;-142.97;56.44
8451;BME280;4262;50.980;13.892;2024-01-07T03:26:18;87526.97;;;-142.97;56.20
8451;BME280;4262;50.980;13.892;2024-01-07T03:28:45;87509.25;;;-142.97;56.71
8451;BME280;4262;50.980;13.892;2024-01-07T03:31:15;87475.72;;;-142.97;56.87
8451;BME280;4262;50.980;13.892;2024-01-07T03:33:43;87467.84;;;-142.97;56.31
8451;BME280;4262;50.980;13.892;2024-01-07T03:36:11;87436.31;;;-142.97;56.47
8451;BME280;4262;50.980;13.892;2024-01-07T03:38:38;87481.66;;;-142.97;56.24
8451;BME280;4262;50.980;13.892;2024-01-07T03:41:06;87491.50;;;-142.97;56.04
8451;BME280;4262;50.980;13.892;2024-01-07T03:43:33;87458.00;;;-142.97;56.03
8451;BME280;4262;50.980;13.892;2024-01-07T03:46:00;87454.06;;;-142.97;55.89
8451;BME280;4262;50.980;13.892;2024-01-07T03:48:26;87446.16;;;-142.97;55.50
8451;BME280;4262;50.980;13.892;2024-01-07T03:50:54;87428.44;;;-142.97;55.06
8451;BME280;4262;50.980;13.892;2024-01-07T03:53:21;87418.56;;;-142.97;54.93
8451;BME280;4262;50.980;13.892;2024-01-07T03:55:48;87389.00;;;-142.97;55.23
8451;BME280;4262;50.980;13.892;2024-01-07T03:58:14;87410.69;;;-142.97;55.05
8451;BME280;4262;50.980;13.892;2024-01-07T04:00:41;87424.50;;;-142.97;54.75
8451;BME280;4262;50.980;13.892;2024-01-07T04:03:08;87243.16;;;-142.97;54.84
8451;BME280;4262;50.980;13.892;2024-01-07T04:05:35;87365.38;;;-142.97;54.94
8451;BME280;4262;50.980;13.892;2024-01-07T04:08:04;87377.19;;;-142.97;54.17
8451;BME280;4262;50.980;13.892;2024-01-07T04:10:30;87361.41;;;-142.97;53.87
8451;BME280;4262;50.980;13.892;2024-01-07T04:12:57;87406.75;;;-142.97;54.56
8451;BME280;4262;50.980;13.892;2024-01-07T04:15:24;87390.97;;;-142.97;54.63
8451;BME280;4262;50.980;13.892;2024-01-07T04:17:54;87396.91;;;-142.97;54.66
8451;BME280;4262;50.980;13.892;2024-01-07T04:20:21;87412.66;;;-142.97;54.92
8451;BME280;4262;50.980;13.892;2024-01-07T04:22:49;87396.91;;;-142.97;54.80
8451;BME280;4262;50.980;13.892;2024-01-07T04:25:17;87394.94;;;-142.97;54.50
8451;BME280;4262;50.980;13.892;2024-01-07T04:27:44;87418.56;;;-142.97;54.46
8451;BME280;4262;50.980;13.892;2024-01-07T04:30:11;87343.69;;;-142.97;54.59
8451;BME280;4262;50.980;13.892;2024-01-07T04:32:38;87373.25;;;-142.97;54.09
8451;BME280;4262;50.980;13.892;2024-01-07T04:35:05;87381.13;;;-142.97;53.76
8451;BME280;4262;50.980;13.892;2024-01-07T04:37:35;87432.38;;;-142.97;54.31
8451;BME280;4262;50.980;13.892;2024-01-07T04:40:04;87314.13;;;-142.97;53.93
8451;BME280;4262;50.980;13.892;2024-01-07T04:42:35;87316.09;;;-142.97;53.29
8451;BME280;4262;50.980;13.892;2024-01-07T04:45:02;87351.56;;;-142.97;53.54
8451;BME280;4262;50.980;13.892;2024-01-07T04:47:30;87381.13;;;-142.97;53.86
8451;BME280;4262;50.980;13.892;2024-01-07T04:49:57;87371.28;;;-142.97;53.30
8451;BME280;4262;50.980;13.892;2024-01-07T04:52:24;87390.97;;;-142.97;53.60
8451;BME280;4262;50.980;13.892;2024-01-07T04:54:52;87381.13;;;-142.97;53.68
8451;BME280;4262;50.980;13.892;2024-01-07T04:57:22;87394.94;;;-142.97;53.31
8451;BME280;4262;50.980;13.892;2024-01-07T04:59:50;87416.59;;;-142.97;53.58
8451;BME280;4262;50.980;13.892;2024-01-07T05:02:17;87373.25;;;-142.97;53.54
8451;BME280;4262;50.980;13.892;2024-01-07T05:04:44;87387.03;;;-142.97;53.26
8451;BME280;4262;50.980;13.892;2024-01-07T05:07:11;87375.22;;;-142.97;53.45
8451;BME280;4262;50.980;13.892;2024-01-07T05:09:39;87371.28;;;-142.97;53.00
8451;BME280;4262;50.980;13.892;2024-01-07T05:12:08;87379.16;;;-142.97;53.11
8451;BME280;4262;50.980;13.892;2024-01-07T05:14:37;87365.38;;;-142.97;52.81
8451;BME280;4262;50.980;13.892;2024-01-07T05:17:06;87379.16;;;-142.97;53.27
8451;BME280;4262;50.980;13.892;2024-01-07T05:19:36;87325.94;;;-142.97;52.99
8451;BME280;4262;50.980;13.892;2024-01-07T05:22:06;87385.06;;;-142.97;53.22
8451;BME280;4262;50.980;13.892;2024-01-07T05:24:36;87454.06;;;-142.97;53.28
8451;BME280;4262;50.980;13.892;2024-01-07T05:27:03;87394.94;;;-142.97;53.37
8451;BME280;4262;50.980;13.892;2024-01-07T05:29:30;87394.94;;;-142.97;53.59
8451;BME280;4262;50.980;13.892;2024-01-07T05:32:01;87408.72;;;-142.97;54.03
8451;BME280;4262;50.980;13.892;2024-01-07T05:34:30;87404.78;;;-142.97;54.07
8451;BME280;4262;50.980;13.892;2024-01-07T05:36:56;87426.47;;;-142.97;54.07
8451;BME280;4262;50.980;13.892;2024-01-07T05:39:25;87416.59;;;-142.97;54.18
8451;BME280;4262;50.980;13.892;2024-01-07T05:41:54;87436.31;;;-142.97;54.00
8451;BME280;4262;50.980;13.892;2024-01-07T05:44:23;87450.13;;;-142.97;53.85
8451;BME280;4262;50.980;13.892;2024-01-07T05:46:53;87107.19;;;-142.97;53.65
8451;BME280;4262;50.980;13.892;2024-01-07T05:49:19;87450.13;;;-142.97;54.19
8451;BME280;4262;50.980;13.892;2024-01-07T05:51:48;87420.56;;;-142.97;54.32
8451;BME280;4262;50.980;13.892;2024-01-07T05:54:21;87495.44;;;-142.97;54.89
8451;BME280;4262;50.980;13.892;2024-01-07T05:56:56;87513.19;;;-142.97;54.37
8451;BME280;4262;50.980;13.892;2024-01-07T05:59:23;87461.94;;;-142.97;54.54
8451;BME280;4262;50.980;13.892;2024-01-07T06:01:49;87436.31;;;-142.97;54.02
8451;BME280;4262;50.980;13.892;2024-01-07T06:04:16;87406.75;;;-142.97;54.04
8451;BME280;4262;50.980;13.892;2024-01-07T06:06:43;87325.94;;;-142.97;54.12
8451;BME280;4262;50.980;13.892;2024-01-07T06:09:11;87410.69;;;-142.97;54.15
8451;BME280;4262;50.980;13.892;2024-01-07T06:11:38;87424.50;;;-142.97;54.47
8451;BME280;4262;50.980;13.892;2024-01-07T06:14:10;87475.72;;;-142.97;54.61
8451;BME280;4262;50.980;13.892;2024-01-07T06:16:37;87458.00;;;-142.97;55.01
8451;BME280;4262;50.980;13.892;2024-01-07T06:19:03;87450.13;;;-142.97;55.40
8451;BME280;4262;50.980;13.892;2024-01-07T06:21:32;87436.31;;;-142.97;54.75
8451;BME280;4262;50.980;13.892;2024-01-07T06:24:02;87503.31;;;-142.97;55.04
8451;BME280;4262;50.980;13.892;2024-01-07T06:26:33;87426.47;;;-142.97;54.53
8451;BME280;4262;50.980;13.892;2024-01-07T06:29:02;87418.56;;;-142.97;54.07
8451;BME280;4262;50.980;13.892;2024-01-07T06:31:31;87434.34;;;-142.97;53.98
8451;BME280;4262;50.980;13.892;2024-01-07T06:34:02;87444.19;;;-142.97;54.25
8451;BME280;4262;50.980;13.892;2024-01-07T06:36:36;87430.41;;;-142.97;54.00
8451;BME280;4262;50.980;13.892;2024-01-07T06:39:08;87515.16;;;-142.97;53.83
8451;BME280;4262;50.980;13.892;2024-01-07T06:41:37;87406.75;;;-142.97;53.96
8451;BME280;4262;50.980;13.892;2024-01-07T06:44:07;87450.13;;;-142.97;54.02
8451;BME280;4262;50.980;13.892;2024-01-07T06:46:34;87434.34;;;-142.97;53.97
8451;BME280;4262;50.980;13.892;2024-01-07T06:49:01;87454.06;;;-142.97;54.21
8451;BME280;4262;50.980;13.892;2024-01-07T06:51:28;87501.34;;;-142.97;54.52
8451;BME280;4262;50.980;13.892;2024-01-07T06:53:55;87448.16;;;-142.97;54.67
8451;BME280;4262;50.980;13.892;2024-01-07T06:56:22;87454.06;;;-142.97;54.38
8451;BME280;4262;50.980;13.892;2024-01-07T06:59:00;87517.13;;;-142.97;54.46
8451;BME280;4262;50.980;13.892;2024-01-07T07:01:37;87469.81;;;-142.97;54.12
8451;BME280;4262;50.980;13.892;2024-01-07T07:04:05;87430.41;;;-142.97;54.52
8451;BME280;4262;50.980;13.892;2024-01-07T07:06:44;87422.53;;;-142.97;53.49
8451;BME280;4262;50.980;13.892;2024-01-07T07:09:14;87414.63;;;-142.97;53.76
8451;BME280;4262;50.980;13.892;2024-01-07T07:11:52;87430.41;;;-142.97;53.43
8451;BME280;4262;50.980;13.892;2024-01-07T07:14:24;87450.13;;;-142.97;52.90
8451;BME280;4262;50.980;13.892;2024-01-07T07:16:57;87392.97;;;-142.97;52.73
8451;BME280;4262;50.980;13.892;2024-01-07T07:19:25;87465.88;;;-142.97;53.03
8451;BME280;4262;50.980;13.892;2024-01-07T07:22:00;87428.44;;;-142.97;52.51
8451;BME280;4262;50.980;13.892;2024-01-07T07:24:30;87367.34;;;-142.97;52.59
8451;BME280;4262;50.980;13.892;2024-01-07T07:27:12;87377.19;;;-142.97;52.12
8451;BME280;4262;50.980;13.892;2024-01-07T07:29:55;87400.84;;;-142.97;52.07
8451;BME280;4262;50.980;13.892;2024-01-07T07:32:29;87398.88;;;-142.97;52.32
8451;BME280;4262;50.980;13.892;2024-01-07T07:34:56;87424.50;;;-142.97;52.02
8451;BME280;4262;50.980;13.892;2024-01-07T07:37:27;87400.84;;;-142.97;52.11
8451;BME280;4262;50.980;13.892;2024-01-07T07:39:56;87434.34;;;-142.97;51.68
8451;BME280;4262;50.980;13.892;2024-01-07T07:42:26;87373.25;;;-142.97;51.73
8451;BME280;4262;50.980;13.892;2024-01-07T07:45:16;87442.22;;;-142.97;51.64
8451;BME280;4262;50.980;13.892;2024-01-07T07:48:01;87406.75;;;-142.97;51.34
8451;BME280;4262;50.980;13.892;2024-01-07T07:50:44;87416.59;;;-142.97;51.68
8451;BME280;4262;50.980;13.892;2024-01-07T07:53:23;87404.78;;;-142.97;51.61
8451;BME280;4262;50.980;13.892;2024-01-07T07:56:03;87396.91;;;-142.97;51.45
8451;BME280;4262;50.980;13.892;2024-01-07T07:58:48;87394.94;;;-142.97;51.39
8451;BME280;4262;50.980;13.892;2024-01-07T08:01:29;87365.38;;;-142.97;51.10
8451;BME280;4262;50.980;13.892;2024-01-07T08:04:06;87341.72;;;-142.97;51.37
8451;BME280;4262;50.980;13.892;2024-01-07T08:06:38;87369.31;;;-142.97;50.63
8451;BME280;4262;50.980;13.892;2024-01-07T08:09:11;87373.25;;;-142.97;50.74
8451;BME280;4262;50.980;13.892;2024-01-07T08:11:41;87477.72;;;-142.97;50.81
8451;BME280;4262;50.980;13.892;2024-01-07T08:14:10;87381.13;;;-142.97;50.67
8451;BME280;4262;50.980;13.892;2024-01-07T08:16:41;87377.19;;;-142.97;50.71
8451;BME280;4262;50.980;13.892;2024-01-07T08:19:07;87426.47;;;-142.97;50.30
8451;BME280;4262;50.980;13.892;2024-01-07T08:21:36;87339.75;;;-142.97;50.34
8451;BME280;4262;50.980;13.892;2024-01-07T08:24:03;87351.56;;;-142.97;50.43
8451;BME280;4262;50.980;13.892;2024-01-07T08:26:36;87343.69;;;-142.97;50.06
8451;BME280;4262;50.980;13.892;2024-01-07T08:29:03;87377.19;;;-142.97;50.08
8451;BME280;4262;50.980;13.892;2024-01-07T08:31:30;87422.53;;;-142.97;49.84
8451;BME280;4262;50.980;13.892;2024-01-07T08:34:05;87365.38;;;-142.97;49.89
8451;BME280;4262;50.980;13.892;2024-01-07T08:36:39;87379.16;;;-142.97;50.14
8451;BME280;4262;50.980;13.892;2024-01-07T08:39:07;87426.47;;;-142.97;50.22
8451;BME280;4262;50.980;13.892;2024-01-07T08:41:49;87318.06;;;-142.97;49.71
8451;BME280;4262;50.980;13.892;2024-01-07T08:44:19;87385.06;;;-142.97;49.49
8451;BME280;4262;50.980;13.892;2024-01-07T08:46:46;87432.38;;;-142.97;49.70
8451;BME280;4262;50.980;13.892;2024-01-07T08:52:19;87333.81;;;-142.97;49.80
8451;BME280;4262;50.980;13.892;2024-01-07T08:55:00;87387.03;;;-142.97;49.53
8451;BME280;4262;50.980;13.892;2024-01-07T08:57:37;87365.38;;;-142.97;49.72
8451;BME280;4262;50.980;13.892;2024-01-07T09:00:27;87341.72;;;-142.97;49.36
8451;BME280;4262;50.980;13.892;2024-01-07T09:03:12;87385.06;;;-142.97;49.79
8451;BME280;4262;50.980;13.892;2024-01-07T09:05:41;87351.56;;;-142.97;49.41
8451;BME280;4262;50.980;13.892;2024-01-07T09:08:09;87320.03;;;-142.97;48.90
8451;BME280;4262;50.980;13.892;2024-01-07T09:10:44;87337.78;;;-142.97;48.95
8451;BME280;4262;50.980;13.892;2024-01-07T09:13:13;87353.53;;;-142.97;49.74
8451;BME280;4262;50.980;13.892;2024-01-07T09:15:42;87349.59;;;-142.97;49.26
8451;BME280;4262;50.980;13.892;2024-01-07T09:18:09;87367.34;;;-142.97;49.42
8451;BME280;4262;50.980;13.892;2024-01-07T09:20:36;87389.00;;;-142.97;48.81
8451;BME280;4262;50.980;13.892;2024-01-07T09:23:05;87379.16;;;-142.97;49.19
8451;BME280;4262;50.980;13.892;2024-01-07T09:25:32;87335.81;;;-142.97;49.40
8451;BME280;4262;50.980;13.892;2024-01-07T09:27:59;87351.56;;;-142.97;48.88
8451;BME280;4262;50.980;13.892;2024-01-07T09:30:26;87343.69;;;-142.97;48.72
8451;BME280;4262;50.980;13.892;2024-01-07T09:32:53;87367.34;;;-142.97;48.38
8451;BME280;4262;50.980;13.892;2024-01-07T09:35:20;87390.97;;;-142.97;48.98
8451;BME280;4262;50.980;13.892;2024-01-07T09:37:46;87329.88;;;-142.97;48.32
8451;BME280;4262;50.980;13.892;2024-01-07T09:40:18;87308.22;;;-142.97;48.37
8451;BME280;4262;50.980;13.892;2024-01-07T09:42:45;87322.00;;;-142.97;47.83
8451;BME280;4262;50.980;13.892;2024-01-07T09:45:13;87343.69;;;-142.97;48.42
8451;BME280;4262;50.980;13.892;2024-01-07T09:47:40;87343.69;;;-142.97;48.23
8451;BME280;4262;50.980;13.892;2024-01-07T09:50:09;87357.47;;;-142.97;47.87
8451;BME280;4262;50.980;13.892;2024-01-07T09:52:38;87320.03;;;-142.97;48.10
8451;BME280;4262;50.980;13.892;2024-01-07T09:55:09;87389.00;;;-142.97;48.10
8451;BME280;4262;50.980;13.892;2024-01-07T09:57:40;87357.47;;;-142.97;48.25
8451;BME280;4262;50.980;13.892;2024-01-07T10:00:08;87363.41;;;-142.97;48.22
8451;BME280;4262;50.980;13.892;2024-01-07T10:02:38;87379.16;;;-142.97;48.57
8451;BME280;4262;50.980;13.892;2024-01-07T10:05:07;87359.44;;;-142.97;49.23
8451;BME280;4262;50.980;13.892;2024-01-07T10:07:34;87392.97;;;-142.97;49.38
8451;BME280;4262;50.980;13.892;2024-01-07T10:10:11;87406.75;;;-142.97;49.26
8451;BME280;4262;50.980;13.892;2024-01-07T10:12:40;87416.59;;;-142.97;48.67
8451;BME280;4262;50.980;13.892;2024-01-07T10:15:07;87446.16;;;-142.97;48.74
8451;BME280;4262;50.980;13.892;2024-01-07T10:17:34;87458.00;;;-142.97;48.47
8451;BME280;4262;50.980;13.892;2024-01-07T10:20:04;87343.69;;;-142.97;48.67
8451;BME280;4262;50.980;13.892;2024-01-07T10:22:36;87333.81;;;-142.97;48.58
8451;BME280;4262;50.980;13.892;2024-01-07T10:25:03;87351.56;;;-142.97;47.72
8451;BME280;4262;50.980;13.892;2024-01-07T10:27:33;87396.91;;;-142.97;48.39
8451;BME280;4262;50.980;13.892;2024-01-07T10:30:03;87387.03;;;-142.97;48.75
8451;BME280;4262;50.980;13.892;2024-01-07T10:32:30;87369.31;;;-142.97;48.19
8451;BME280;4262;50.980;13.892;2024-01-07T10:35:02;87381.13;;;-142.97;48.31
8451;BME280;4262;50.980;13.892;2024-01-07T10:37:29;87341.72;;;-142.97;49.24
8451;BME280;4262;50.980;13.892;2024-01-07T10:39:58;87406.75;;;-142.97;48.66
8451;BME280;4262;50.980;13.892;2024-01-07T10:42:30;87463.91;;;-142.97;49.01
8451;BME280;4262;50.980;13.892;2024-01-07T10:44:57;87371.28;;;-142.97;48.57
8451;BME280;4262;50.980;13.892;2024-01-07T10:47:27;87373.25;;;-142.97;49.12
8451;BME280;4262;50.980;13.892;2024-01-07T10:49:57;87404.78;;;-142.97;48.70
8451;BME280;4262;50.980;13.892;2024-01-07T10:52:26;87398.88;;;-142.97;48.61
8451;BME280;4262;50.980;13.892;2024-01-07T10:54:56;87402.81;;;-142.97;48.36
8451;BME280;4262;50.980;13.892;2024-01-07T10:57:27;87365.38;;;-142.97;48.30
8451;BME280;4262;50.980;13.892;2024-01-07T10:59:59;87392.97;;;-142.97;48.10
8451;BME280;4262;50.980;13.892;2024-01-07T11:02:28;87369.31;;;-142.97;47.78
8451;BME280;4262;50.980;13.892;2024-01-07T11:05:00;87404.78;;;-142.97;47.28
8451;BME280;4262;50.980;13.892;2024-01-07T11:07:35;87458.00;;;-142.97;47.46
8451;BME280;4262;50.980;13.892;2024-01-07T11:10:10;87410.69;;;-142.97;48.09
8451;BME280;4262;50.980;13.892;2024-01-07T11:12:38;87392.97;;;-142.97;47.55
8451;BME280;4262;50.980;13.892;2024-01-07T11:15:06;87390.97;;;-142.97;47.60
8451;BME280;4262;50.980;13.892;2024-01-07T11:17:41;87377.19;;;-142.97;46.54
8451;BME280;4262;50.980;13.892;2024-01-07T11:20:17;87396.91;;;-142.97;45.80
8451;BME280;4262;50.980;13.892;2024-01-07T11:22:44;87385.06;;;-142.97;45.86
8451;BME280;4262;50.980;13.892;2024-01-07T11:25:29;87469.81;;;-142.97;46.34
8451;BME280;4262;50.980;13.892;2024-01-07T11:27:56;87390.97;;;-142.97;45.79
8451;BME280;4262;50.980;13.892;2024-01-07T11:30:24;87363.41;;;-142.97;45.60
8451;BME280;4262;50.980;13.892;2024-01-07T11:32:59;87349.59;;;-142.97;45.27
8451;BME280;4262;50.980;13.892;2024-01-07T11:35:53;87394.94;;;-142.97;45.12
8451;BME280;4262;50.980;13.892;2024-01-07T11:38:22;87351.56;;;-142.97;46.08
8451;BME280;4262;50.980;13.892;2024-01-07T11:40:49;87351.56;;;-142.97;44.81
8451;BME280;4262;50.980;13.892;2024-01-07T11:43:17;87371.28;;;-142.97;45.16
8451;BME280;4262;50.980;13.892;2024-01-07T11:45:44;87333.81;;;-142.97;45.12
8451;BME280;4262;50.980;13.892;2024-01-07T11:48:13;87343.69;;;-142.97;44.04
8451;BME280;4262;50.980;13.892;2024-01-07T11:50:40;87343.69;;;-142.97;43.96
8451;BME280;4262;50.980;13.892;2024-01-07T11:53:07;87341.72;;;-142.97;43.69
8451;BME280;4262;50.980;13.892;2024-01-07T11:55:34;87286.53;;;-142.97;44.14
8451;BME280;4262;50.980;13.892;2024-01-07T11:58:02;87296.38;;;-142.97;43.37
8451;BME280;4262;50.980;13.892;2024-01-07T12:00:31;87302.28;;;-142.97;43.71
8451;BME280;4262;50.980;13.892;2024-01-07T12:02:59;87308.22;;;-142.97;44.02
8451;BME280;4262;50.980;13.892;2024-01-07T12:05:28;87286.53;;;-142.97;43.92
8451;BME280;4262;50.980;13.892;2024-01-07T12:07:56;87262.88;;;-142.97;43.48
8451;BME280;4262;50.980;13.892;2024-01-07T12:10:23;87288.50;;;-142.97;43.83
8451;BME280;4262;50.980;13.892;2024-01-07T12:12:51;87292.44;;;-142.97;44.05
8451;BME280;4262;50.980;13.892;2024-01-07T12:15:20;87294.41;;;-142.97;44.17
8451;BME280;4262;50.980;13.892;2024-01-07T12:17:57;87381.13;;;-142.97;44.14
8451;BME280;4262;50.980;13.892;2024-01-07T12:20:26;87375.22;;;-142.97;44.26
8451;BME280;4262;50.980;13.892;2024-01-07T12:22:57;87343.69;;;-142.97;44.72
8451;BME280;4262;50.980;13.892;2024-01-07T12:25:25;87377.19;;;-142.97;44.43
8451;BME280;4262;50.980;13.892;2024-01-07T12:27:52;87355.50;;;-142.97;44.76
8451;BME280;4262;50.980;13.892;2024-01-07T12:30:20;87351.56;;;-142.97;44.25
8451;BME280;4262;50.980;13.892;2024-01-07T12:32:47;87322.00;;;-142.97;44.43
8451;BME280;4262;50.980;13.892;2024-01-07T12:35:19;87383.09;;;-142.97;44.35
8451;BME280;4262;50.980;13.892;2024-01-07T12:38:08;87389.00;;;-142.97;45.12
8451;BME280;4262;50.980;13.892;2024-01-07T12:40:54;87369.31;;;-142.97;44.92
8451;BME280;4262;50.980;13.892;2024-01-07T12:43:37;87389.00;;;-142.97;45.15
8451;BME280;4262;50.980;13.892;2024-01-07T12:46:20;87410.69;;;-142.97;45.04
8451;BME280;4262;50.980;13.892;2024-01-07T12:48:54;87381.13;;;-142.97;46.08
8451;BME280;4262;50.980;13.892;2024-01-07T12:51:34;87471.78;;;-142.97;45.30
8451;BME280;4262;50.980;13.892;2024-01-07T12:54:29;87390.97;;;-142.97;45.62
8451;BME280;4262;50.980;13.892;2024-01-07T12:57:06;87243.16;;;-142.97;45.40
8451;BME280;4262;50.980;13.892;2024-01-07T12:59:46;87426.47;;;-142.97;45.78
8451;BME280;4262;50.980;13.892;2024-01-07T13:02:23;87481.66;;;-142.97;46.21
8451;BME280;4262;50.980;13.892;2024-01-07T13:05:12;87410.69;;;-142.97;45.99
8451;BME280;4262;50.980;13.892;2024-01-07T13:07:44;87497.41;;;-142.97;46.04